Bonaparte, IA (52620)

12:33 PM CDT am 07. Juli 2015 (GMT -0500)
KIADONNE3 | | Change Station
CLOSE
Current Station
Persönliche Wetterstationen
Location: Donnellson, IA
Höhe: 700 ft
Wetterstationen in der Umgebung

Höhe 700 ft 40.63 °N, 91.60 °W | Updated 5 seconds ago

Teils Wolkig
Teils Wolkig
71.2 °F
gefühlte 74 °F
N
14.3
Wind Wechselnd Wind aus Nord-Nordwest
Gusts 17.4 mph

Heute
Max. -- | schwach -- °F
--% Regenrisiko
Gestern
Max. -- | schwach -- °F
Precip. -- inch
5:43 AM 8:40 PM
Drittes Viertel, 63% visible
Druck 30.06 inch
Sichtweite 5.0 Meilen
Wolken Teils Wolkig 3200 ft
Hitzeindex 74 °F
Taupunkt 62 °F
Feuchtigkeit 73%
Regen 0.00 inch
Schneehöhe Nicht verfügbar..
UV 9 von 12
Pollen 1.50 von 12
Luftqualität Nicht verfügbar..
Flu Activity Nicht verfügbar..
METAR KMPZ 071715Z AUTO 02010KT 5SM HZ SCT032 23/11 A3006 RMK AO2 T02330113

More Conditions Fewer Conditions

Druck 30.06 inch
Sichtweite 5.0 Meilen
Wolken Teils Wolkig 3200 ft
Hitzeindex 74 °F
Taupunkt 62 °F
Feuchtigkeit 73%
Regen 0.00 inch
Schneehöhe Nicht verfügbar..
UV 9 von 12
Pollen 1.50 von 12
Luftqualität Nicht verfügbar..
Flu Activity Nicht verfügbar..
METAR KMPZ 071715Z AUTO 02010KT 5SM HZ SCT032 23/11 A3006 RMK AO2 T02330113

More Conditions Fewer Conditions

10-Day Weather Forecast

×

Almanac

Astronomie

Jul. 07, 2015 Aufgang Untergang
Genaue Zeit
Bürgerliche Dämmerung
Nautische Dämmerung
Astronomische Dämmerung
Mond
Länge des sichtbaren Lichts
Tageslänge
Tomorrow will be .
, % of the Moon is Illuminated

Heutige Rekorde

State Highs State Lows

Community

WunderPhotos

Upload Photos

1,835,858 Fotos hochgeladen!

WunderBlogs® & News

Nearby

Luftqualität

  Luftqualität LQ Index Schadstoff
Not available.

Schneehöhe

Station Depth Höhe

Erdbebenaktivität

Stadt Distance Mag. Time & Date
Minimum magnitude displayed is 2.5.

küstennahe Wassertemperaturen

Ort Temperatur

Stations

Wetterstationen in der Umgebung

Stationsstandort Temp. Windchill Taupunkt Feuchtigkeit Wind Precip. Höhe Aktualisiert Art